Eprise, Alabama
Current Conditions -  °F | °C
As of 1:15 PM on Saturday 20 Dec 2014 (Local Time) from KEDN Reporting Station
Overcast Overcast  
Wind Chill: 54°   Ceiling: 10000
Heat Index: 54°   Visibility: 10mi
Dew Point: 48°   Wind: 5mph
Humidity: 82%   Direction: 30°NNE
Pressure: 30.1"   Gusts: NA
Location:  31.3153°N, 85.8554°W
Report Text: KEDN 201915Z AUTO 03004KT 10SM SCT013 OVC100 12/09 A3010 RMK AO2
Loading
Personal Weather Stations






























Interactive Weather Map New forecast layout! Learn more

10-Day Weather Forecast

Advertisements
Track Severe Weather on mobile